sensor_id;sensor_type;location;lat;lon;timestamp;P1;durP1;ratioP1;P2;durP2;ratioP2
71800;SDS011;59647;55.838;37.292;2022-08-07T00:01:08;12.40;;;7.75;;
71800;SDS011;59647;55.838;37.292;2022-08-07T00:03:34;12.02;;;7.43;;
71800;SDS011;59647;55.838;37.292;2022-08-07T00:06:00;10.27;;;7.15;;
71800;SDS011;59647;55.838;37.292;2022-08-07T00:08:26;11.60;;;7.43;;
71800;SDS011;59647;55.838;37.292;2022-08-07T00:10:52;13.45;;;7.60;;
71800;SDS011;59647;55.838;37.292;2022-08-07T00:13:18;10.23;;;7.00;;
71800;SDS011;59647;55.838;37.292;2022-08-07T00:15:45;11.02;;;6.72;;
71800;SDS011;59647;55.838;37.292;2022-08-07T00:18:16;12.48;;;6.38;;
71800;SDS011;59647;55.838;37.292;2022-08-07T00:20:43;11.38;;;7.10;;
71800;SDS011;59647;55.838;37.292;2022-08-07T00:23:09;15.45;;;7.20;;
71800;SDS011;59647;55.838;37.292;2022-08-07T00:25:35;10.15;;;6.85;;
71800;SDS011;59647;55.838;37.292;2022-08-07T00:28:01;12.05;;;6.95;;
71800;SDS011;59647;55.838;37.292;2022-08-07T00:30:27;11.18;;;7.20;;
71800;SDS011;59647;55.838;37.292;2022-08-07T00:32:57;12.23;;;7.32;;
71800;SDS011;59647;55.838;37.292;2022-08-07T00:35:25;10.25;;;7.32;;
71800;SDS011;59647;55.838;37.292;2022-08-07T00:37:52;9.27;;;7.32;;
71800;SDS011;59647;55.838;37.292;2022-08-07T00:40:18;13.00;;;8.15;;
71800;SDS011;59647;55.838;37.292;2022-08-07T00:42:44;11.00;;;6.82;;
71800;SDS011;59647;55.838;37.292;2022-08-07T00:45:10;13.18;;;8.07;;
71800;SDS011;59647;55.838;37.292;2022-08-07T00:47:36;10.02;;;7.25;;
71800;SDS011;59647;55.838;37.292;2022-08-07T00:50:03;14.43;;;7.47;;
71800;SDS011;59647;55.838;37.292;2022-08-07T00:52:29;11.93;;;7.25;;
71800;SDS011;59647;55.838;37.292;2022-08-07T00:54:55;12.57;;;7.63;;
71800;SDS011;59647;55.838;37.292;2022-08-07T00:57:22;14.20;;;7.63;;
71800;SDS011;59647;55.838;37.292;2022-08-07T00:59:48;15.35;;;7.72;;
71800;SDS011;59647;55.838;37.292;2022-08-07T01:02:15;12.43;;;7.22;;
71800;SDS011;59647;55.838;37.292;2022-08-07T01:04:41;11.80;;;7.45;;
71800;SDS011;59647;55.838;37.292;2022-08-07T01:07:07;12.07;;;7.43;;
71800;SDS011;59647;55.838;37.292;2022-08-07T01:09:33;13.77;;;7.22;;
71800;SDS011;59647;55.838;37.292;2022-08-07T01:11:59;16.58;;;7.90;;
71800;SDS011;59647;55.838;37.292;2022-08-07T01:14:25;8.93;;;6.53;;
71800;SDS011;59647;55.838;37.292;2022-08-07T01:16:51;13.80;;;7.35;;
71800;SDS011;59647;55.838;37.292;2022-08-07T01:19:20;11.10;;;6.43;;
71800;SDS011;59647;55.838;37.292;2022-08-07T01:21:51;10.13;;;6.82;;
71800;SDS011;59647;55.838;37.292;2022-08-07T01:24:19;12.75;;;6.70;;
71800;SDS011;59647;55.838;37.292;2022-08-07T01:26:45;18.13;;;7.13;;
71800;SDS011;59647;55.838;37.292;2022-08-07T01:29:12;11.05;;;6.47;;
71800;SDS011;59647;55.838;37.292;2022-08-07T01:31:39;14.77;;;7.70;;
71800;SDS011;59647;55.838;37.292;2022-08-07T01:34:06;9.18;;;6.57;;
71800;SDS011;59647;55.838;37.292;2022-08-07T01:36:38;10.10;;;6.85;;
71800;SDS011;59647;55.838;37.292;2022-08-07T01:39:11;12.40;;;7.28;;
71800;SDS011;59647;55.838;37.292;2022-08-07T01:41:42;12.80;;;8.00;;
71800;SDS011;59647;55.838;37.292;2022-08-07T01:44:09;12.98;;;7.05;;
71800;SDS011;59647;55.838;37.292;2022-08-07T01:46:36;11.48;;;6.43;;
71800;SDS011;59647;55.838;37.292;2022-08-07T01:49:05;14.77;;;6.53;;
71800;SDS011;59647;55.838;37.292;2022-08-07T01:51:31;12.48;;;6.97;;
71800;SDS011;59647;55.838;37.292;2022-08-07T01:53:59;13.25;;;7.35;;
71800;SDS011;59647;55.838;37.292;2022-08-07T01:56:30;13.43;;;6.57;;
71800;SDS011;59647;55.838;37.292;2022-08-07T01:59:06;14.05;;;8.02;;
71800;SDS011;59647;55.838;37.292;2022-08-07T02:01:39;10.98;;;7.05;;
71800;SDS011;59647;55.838;37.292;2022-08-07T02:04:15;10.13;;;6.85;;
71800;SDS011;59647;55.838;37.292;2022-08-07T02:06:51;12.85;;;7.53;;
71800;SDS011;59647;55.838;37.292;2022-08-07T02:09:21;11.52;;;7.18;;
71800;SDS011;59647;55.838;37.292;2022-08-07T02:11:50;17.02;;;7.80;;
71800;SDS011;59647;55.838;37.292;2022-08-07T02:14:17;16.67;;;9.32;;
71800;SDS011;59647;55.838;37.292;2022-08-07T02:16:46;12.07;;;7.18;;
71800;SDS011;59647;55.838;37.292;2022-08-07T02:19:18;17.00;;;8.18;;
71800;SDS011;59647;55.838;37.292;2022-08-07T02:21:46;15.23;;;8.60;;
71800;SDS011;59647;55.838;37.292;2022-08-07T02:24:14;12.63;;;8.00;;
71800;SDS011;59647;55.838;37.292;2022-08-07T02:26:43;10.90;;;7.45;;
71800;SDS011;59647;55.838;37.292;2022-08-07T02:29:10;13.98;;;7.35;;
71800;SDS011;59647;55.838;37.292;2022-08-07T02:31:37;11.80;;;7.10;;
71800;SDS011;59647;55.838;37.292;2022-08-07T02:34:05;13.40;;;6.63;;
71800;SDS011;59647;55.838;37.292;2022-08-07T02:36:38;11.93;;;6.07;;
71800;SDS011;59647;55.838;37.292;2022-08-07T02:39:11;12.18;;;7.20;;
71800;SDS011;59647;55.838;37.292;2022-08-07T02:41:39;11.55;;;6.60;;
71800;SDS011;59647;55.838;37.292;2022-08-07T02:44:06;12.20;;;6.72;;
71800;SDS011;59647;55.838;37.292;2022-08-07T02:46:33;11.25;;;6.47;;
71800;SDS011;59647;55.838;37.292;2022-08-07T02:49:02;13.45;;;6.40;;
71800;SDS011;59647;55.838;37.292;2022-08-07T02:51:31;14.10;;;7.68;;
71800;SDS011;59647;55.838;37.292;2022-08-07T02:54:00;12.88;;;7.05;;
71800;SDS011;59647;55.838;37.292;2022-08-07T02:56:28;17.27;;;6.60;;
71800;SDS011;59647;55.838;37.292;2022-08-07T02:58:56;11.07;;;6.47;;
71800;SDS011;59647;55.838;37.292;2022-08-07T03:01:28;12.50;;;6.90;;
71800;SDS011;59647;55.838;37.292;2022-08-07T03:03:57;18.33;;;6.47;;
71800;SDS011;59647;55.838;37.292;2022-08-07T03:06:27;12.82;;;6.38;;
71800;SDS011;59647;55.838;37.292;2022-08-07T03:08:55;11.13;;;7.05;;
71800;SDS011;59647;55.838;37.292;2022-08-07T03:11:22;15.25;;;7.97;;
71800;SDS011;59647;55.838;37.292;2022-08-07T03:13:48;10.98;;;5.93;;
71800;SDS011;59647;55.838;37.292;2022-08-07T03:16:16;10.93;;;6.63;;
71800;SDS011;59647;55.838;37.292;2022-08-07T03:18:42;10.40;;;6.93;;
71800;SDS011;59647;55.838;37.292;2022-08-07T03:21:09;9.93;;;6.60;;
71800;SDS011;59647;55.838;37.292;2022-08-07T03:23:38;14.57;;;6.78;;
71800;SDS011;59647;55.838;37.292;2022-08-07T03:26:05;10.60;;;6.70;;
71800;SDS011;59647;55.838;37.292;2022-08-07T03:28:36;13.55;;;6.50;;
71800;SDS011;59647;55.838;37.292;2022-08-07T03:31:05;9.70;;;5.90;;
71800;SDS011;59647;55.838;37.292;2022-08-07T03:33:47;10.65;;;5.70;;
71800;SDS011;59647;55.838;37.292;2022-08-07T03:36:17;10.88;;;6.22;;
71800;SDS011;59647;55.838;37.292;2022-08-07T03:38:47;15.98;;;6.50;;
71800;SDS011;59647;55.838;37.292;2022-08-07T03:41:16;9.45;;;5.68;;
71800;SDS011;59647;55.838;37.292;2022-08-07T03:43:43;13.35;;;6.60;;
71800;SDS011;59647;55.838;37.292;2022-08-07T03:46:11;11.25;;;6.22;;
71800;SDS011;59647;55.838;37.292;2022-08-07T03:48:38;14.85;;;7.00;;
71800;SDS011;59647;55.838;37.292;2022-08-07T03:51:05;11.68;;;6.47;;
71800;SDS011;59647;55.838;37.292;2022-08-07T03:53:38;11.10;;;6.50;;
71800;SDS011;59647;55.838;37.292;2022-08-07T03:56:05;15.68;;;6.40;;
71800;SDS011;59647;55.838;37.292;2022-08-07T03:58:36;10.55;;;6.18;;
71800;SDS011;59647;55.838;37.292;2022-08-07T04:01:04;9.40;;;5.18;;
71800;SDS011;59647;55.838;37.292;2022-08-07T04:03:38;8.45;;;6.18;;
71800;SDS011;59647;55.838;37.292;2022-08-07T04:06:09;12.10;;;6.30;;
71800;SDS011;59647;55.838;37.292;2022-08-07T04:08:40;8.23;;;5.97;;
71800;SDS011;59647;55.838;37.292;2022-08-07T04:11:07;9.85;;;5.90;;
71800;SDS011;59647;55.838;37.292;2022-08-07T04:13:37;9.07;;;5.93;;
71800;SDS011;59647;55.838;37.292;2022-08-07T04:16:04;14.13;;;6.15;;
71800;SDS011;59647;55.838;37.292;2022-08-07T04:18:32;10.13;;;5.55;;
71800;SDS011;59647;55.838;37.292;2022-08-07T04:20:58;10.10;;;5.40;;
71800;SDS011;59647;55.838;37.292;2022-08-07T04:23:24;8.90;;;4.78;;
71800;SDS011;59647;55.838;37.292;2022-08-07T04:25:51;10.25;;;5.57;;
71800;SDS011;59647;55.838;37.292;2022-08-07T04:28:17;8.93;;;5.30;;
71800;SDS011;59647;55.838;37.292;2022-08-07T04:30:48;6.20;;;5.00;;
71800;SDS011;59647;55.838;37.292;2022-08-07T04:33:23;10.20;;;5.55;;
71800;SDS011;59647;55.838;37.292;2022-08-07T04:35:52;13.55;;;5.45;;
71800;SDS011;59647;55.838;37.292;2022-08-07T04:38:23;12.25;;;5.93;;
71800;SDS011;59647;55.838;37.292;2022-08-07T04:40:51;8.82;;;5.10;;
71800;SDS011;59647;55.838;37.292;2022-08-07T04:43:51;15.25;;;5.72;;
71800;SDS011;59647;55.838;37.292;2022-08-07T04:46:26;15.75;;;5.32;;
71800;SDS011;59647;55.838;37.292;2022-08-07T04:49:04;8.65;;;4.97;;
71800;SDS011;59647;55.838;37.292;2022-08-07T04:57:47;7.03;;;4.55;;
71800;SDS011;59647;55.838;37.292;2022-08-07T05:00:19;7.80;;;5.28;;
71800;SDS011;59647;55.838;37.292;2022-08-07T05:03:19;11.55;;;4.82;;
71800;SDS011;59647;55.838;37.292;2022-08-07T05:08:52;9.63;;;5.38;;
71800;SDS011;59647;55.838;37.292;2022-08-07T05:11:47;9.00;;;5.10;;
71800;SDS011;59647;55.838;37.292;2022-08-07T05:14:40;15.60;;;6.15;;
71800;SDS011;59647;55.838;37.292;2022-08-07T05:17:11;7.10;;;4.53;;
71800;SDS011;59647;55.838;37.292;2022-08-07T05:19:41;9.73;;;5.15;;
71800;SDS011;59647;55.838;37.292;2022-08-07T05:22:11;13.43;;;4.97;;
71800;SDS011;59647;55.838;37.292;2022-08-07T05:24:41;7.72;;;5.18;;
71800;SDS011;59647;55.838;37.292;2022-08-07T05:27:12;6.88;;;4.72;;
71800;SDS011;59647;55.838;37.292;2022-08-07T05:29:41;11.70;;;5.43;;
71800;SDS011;59647;55.838;37.292;2022-08-07T05:32:10;7.30;;;5.22;;
71800;SDS011;59647;55.838;37.292;2022-08-07T05:34:37;17.38;;;6.10;;
71800;SDS011;59647;55.838;37.292;2022-08-07T05:37:05;10.23;;;5.60;;
71800;SDS011;59647;55.838;37.292;2022-08-07T05:39:39;9.45;;;5.15;;
71800;SDS011;59647;55.838;37.292;2022-08-07T05:42:05;10.88;;;4.97;;
71800;SDS011;59647;55.838;37.292;2022-08-07T05:44:35;6.65;;;4.90;;
71800;SDS011;59647;55.838;37.292;2022-08-07T05:47:03;16.17;;;5.30;;
71800;SDS011;59647;55.838;37.292;2022-08-07T05:49:31;7.25;;;4.72;;
71800;SDS011;59647;55.838;37.292;2022-08-07T05:51:58;8.63;;;4.43;;
71800;SDS011;59647;55.838;37.292;2022-08-07T05:54:27;10.70;;;4.32;;
71800;SDS011;59647;55.838;37.292;2022-08-07T05:56:53;8.25;;;4.63;;
71800;SDS011;59647;55.838;37.292;2022-08-07T05:59:21;8.50;;;4.32;;
71800;SDS011;59647;55.838;37.292;2022-08-07T06:01:53;10.85;;;4.82;;
71800;SDS011;59647;55.838;37.292;2022-08-07T06:04:24;6.60;;;4.55;;
71800;SDS011;59647;55.838;37.292;2022-08-07T06:06:53;10.55;;;5.10;;
71800;SDS011;59647;55.838;37.292;2022-08-07T06:09:20;7.88;;;4.40;;
71800;SDS011;59647;55.838;37.292;2022-08-07T06:11:48;10.15;;;4.40;;
71800;SDS011;59647;55.838;37.292;2022-08-07T06:14:16;7.47;;;4.22;;
71800;SDS011;59647;55.838;37.292;2022-08-07T06:16:44;10.68;;;5.03;;
71800;SDS011;59647;55.838;37.292;2022-08-07T06:19:12;7.97;;;4.65;;
71800;SDS011;59647;55.838;37.292;2022-08-07T06:21:38;21.02;;;5.00;;
71800;SDS011;59647;55.838;37.292;2022-08-07T06:24:06;19.20;;;5.38;;
71800;SDS011;59647;55.838;37.292;2022-08-07T06:26:33;7.68;;;4.20;;
71800;SDS011;59647;55.838;37.292;2022-08-07T06:28:59;8.23;;;4.85;;
71800;SDS011;59647;55.838;37.292;2022-08-07T06:31:28;8.80;;;4.53;;
71800;SDS011;59647;55.838;37.292;2022-08-07T06:33:55;8.15;;;4.35;;
71800;SDS011;59647;55.838;37.292;2022-08-07T06:36:22;12.95;;;4.90;;
71800;SDS011;59647;55.838;37.292;2022-08-07T06:38:54;9.10;;;4.15;;
71800;SDS011;59647;55.838;37.292;2022-08-07T06:41:41;10.50;;;5.35;;
71800;SDS011;59647;55.838;37.292;2022-08-07T06:44:10;8.10;;;4.60;;
71800;SDS011;59647;55.838;37.292;2022-08-07T06:46:37;7.50;;;4.47;;
71800;SDS011;59647;55.838;37.292;2022-08-07T06:49:04;5.25;;;3.80;;
71800;SDS011;59647;55.838;37.292;2022-08-07T06:51:34;8.27;;;4.63;;
71800;SDS011;59647;55.838;37.292;2022-08-07T06:54:06;11.73;;;4.63;;
71800;SDS011;59647;55.838;37.292;2022-08-07T06:56:35;8.38;;;4.30;;
71800;SDS011;59647;55.838;37.292;2022-08-07T06:59:17;7.97;;;4.45;;
71800;SDS011;59647;55.838;37.292;2022-08-07T07:01:50;7.82;;;4.25;;
71800;SDS011;59647;55.838;37.292;2022-08-07T07:04:17;7.32;;;3.97;;
71800;SDS011;59647;55.838;37.292;2022-08-07T07:06:43;6.90;;;3.85;;
71800;SDS011;59647;55.838;37.292;2022-08-07T07:14:50;7.85;;;4.80;;
71800;SDS011;59647;55.838;37.292;2022-08-07T07:17:36;9.52;;;5.15;;
71800;SDS011;59647;55.838;37.292;2022-08-07T07:20:29;9.70;;;4.95;;
71800;SDS011;59647;55.838;37.292;2022-08-07T07:22:59;8.82;;;4.65;;
71800;SDS011;59647;55.838;37.292;2022-08-07T07:25:26;9.25;;;4.82;;
71800;SDS011;59647;55.838;37.292;2022-08-07T07:27:55;9.45;;;5.10;;
71800;SDS011;59647;55.838;37.292;2022-08-07T07:30:25;10.50;;;4.75;;
71800;SDS011;59647;55.838;37.292;2022-08-07T07:32:56;14.90;;;5.00;;
71800;SDS011;59647;55.838;37.292;2022-08-07T07:35:23;11.07;;;4.75;;
71800;SDS011;59647;55.838;37.292;2022-08-07T07:37:51;8.25;;;4.45;;
71800;SDS011;59647;55.838;37.292;2022-08-07T07:40:19;7.78;;;4.35;;
71800;SDS011;59647;55.838;37.292;2022-08-07T07:42:47;10.07;;;4.32;;
71800;SDS011;59647;55.838;37.292;2022-08-07T07:45:17;8.75;;;4.50;;
71800;SDS011;59647;55.838;37.292;2022-08-07T07:47:43;7.65;;;4.60;;
71800;SDS011;59647;55.838;37.292;2022-08-07T07:50:12;10.40;;;4.47;;
71800;SDS011;59647;55.838;37.292;2022-08-07T07:52:40;8.07;;;4.30;;
71800;SDS011;59647;55.838;37.292;2022-08-07T07:55:07;15.00;;;4.60;;
71800;SDS011;59647;55.838;37.292;2022-08-07T07:57:34;11.15;;;4.30;;
71800;SDS011;59647;55.838;37.292;2022-08-07T08:00:02;7.75;;;4.90;;
71800;SDS011;59647;55.838;37.292;2022-08-07T08:02:37;10.10;;;4.93;;
71800;SDS011;59647;55.838;37.292;2022-08-07T08:05:06;8.80;;;4.25;;
71800;SDS011;59647;55.838;37.292;2022-08-07T08:07:34;7.82;;;4.47;;
71800;SDS011;59647;55.838;37.292;2022-08-07T08:10:03;6.82;;;3.78;;
71800;SDS011;59647;55.838;37.292;2022-08-07T08:12:30;9.45;;;4.13;;
71800;SDS011;59647;55.838;37.292;2022-08-07T08:14:58;10.90;;;4.25;;
71800;SDS011;59647;55.838;37.292;2022-08-07T08:17:24;10.32;;;4.38;;
71800;SDS011;59647;55.838;37.292;2022-08-07T08:19:53;9.15;;;3.80;;
71800;SDS011;59647;55.838;37.292;2022-08-07T08:22:23;5.38;;;4.10;;
71800;SDS011;59647;55.838;37.292;2022-08-07T08:25:09;7.82;;;4.03;;
71800;SDS011;59647;55.838;37.292;2022-08-07T08:27:54;7.03;;;3.90;;
71800;SDS011;59647;55.838;37.292;2022-08-07T08:30:21;9.98;;;4.57;;
71800;SDS011;59647;55.838;37.292;2022-08-07T08:32:51;9.35;;;4.47;;
71800;SDS011;59647;55.838;37.292;2022-08-07T08:35:25;13.82;;;4.75;;
71800;SDS011;59647;55.838;37.292;2022-08-07T08:37:58;14.40;;;4.00;;
71800;SDS011;59647;55.838;37.292;2022-08-07T08:40:31;10.07;;;4.28;;
71800;SDS011;59647;55.838;37.292;2022-08-07T08:45:47;11.60;;;5.25;;
71800;SDS011;59647;55.838;37.292;2022-08-07T08:51:36;11.02;;;4.70;;
71800;SDS011;59647;55.838;37.292;2022-08-07T08:54:09;10.15;;;5.10;;
71800;SDS011;59647;55.838;37.292;2022-08-07T08:56:43;9.43;;;5.13;;
71800;SDS011;59647;55.838;37.292;2022-08-07T09:04:53;7.53;;;4.90;;
71800;SDS011;59647;55.838;37.292;2022-08-07T09:07:30;13.82;;;8.65;;
71800;SDS011;59647;55.838;37.292;2022-08-07T09:10:24;10.43;;;4.90;;
71800;SDS011;59647;55.838;37.292;2022-08-07T09:21:52;13.65;;;5.80;;
71800;SDS011;59647;55.838;37.292;2022-08-07T09:29:56;12.13;;;5.40;;
71800;SDS011;59647;55.838;37.292;2022-08-07T09:53:21;10.45;;;4.78;;
71800;SDS011;59647;55.838;37.292;2022-08-07T10:09:00;10.82;;;4.78;;
71800;SDS011;59647;55.838;37.292;2022-08-07T10:11:48;9.00;;;4.03;;
71800;SDS011;59647;55.838;37.292;2022-08-07T10:28:49;29.98;;;4.47;;
71800;SDS011;59647;55.838;37.292;2022-08-07T10:34:35;4.82;;;3.47;;
71800;SDS011;59647;55.838;37.292;2022-08-07T10:45:36;10.63;;;3.88;;
71800;SDS011;59647;55.838;37.292;2022-08-07T10:50:56;6.55;;;3.25;;
71800;SDS011;59647;55.838;37.292;2022-08-07T11:02:04;10.77;;;3.80;;
71800;SDS011;59647;55.838;37.292;2022-08-07T11:10:19;6.80;;;3.80;;
71800;SDS011;59647;55.838;37.292;2022-08-07T11:15:36;7.70;;;3.95;;
71800;SDS011;59647;55.838;37.292;2022-08-07T11:23:45;13.65;;;4.30;;
71800;SDS011;59647;55.838;37.292;2022-08-07T11:26:23;18.00;;;6.50;;
71800;SDS011;59647;55.838;37.292;2022-08-07T11:29:03;11.50;;;5.60;;
71800;SDS011;59647;55.838;37.292;2022-08-07T11:34:43;11.65;;;4.43;;
71800;SDS011;59647;55.838;37.292;2022-08-07T11:53:43;7.97;;;4.63;;
71800;SDS011;59647;55.838;37.292;2022-08-07T11:59:26;8.70;;;4.70;;
71800;SDS011;59647;55.838;37.292;2022-08-07T12:07:37;6.25;;;3.80;;
71800;SDS011;59647;55.838;37.292;2022-08-07T12:10:20;7.65;;;4.15;;
71800;SDS011;59647;55.838;37.292;2022-08-07T12:15:44;6.90;;;3.75;;
71800;SDS011;59647;55.838;37.292;2022-08-07T12:29:22;15.13;;;5.78;;
71800;SDS011;59647;55.838;37.292;2022-08-07T12:34:35;11.82;;;4.65;;
71800;SDS011;59647;55.838;37.292;2022-08-07T12:37:06;10.65;;;4.68;;
71800;SDS011;59647;55.838;37.292;2022-08-07T12:39:34;9.95;;;3.97;;
71800;SDS011;59647;55.838;37.292;2022-08-07T12:42:04;6.30;;;3.88;;
71800;SDS011;59647;55.838;37.292;2022-08-07T12:44:33;103.15;;;11.55;;
71800;SDS011;59647;55.838;37.292;2022-08-07T12:52:37;6.50;;;3.42;;
71800;SDS011;59647;55.838;37.292;2022-08-07T12:58:08;6.35;;;3.40;;
71800;SDS011;59647;55.838;37.292;2022-08-07T13:06:43;4.55;;;3.05;;
71800;SDS011;59647;55.838;37.292;2022-08-07T13:12:02;6.50;;;3.53;;
71800;SDS011;59647;55.838;37.292;2022-08-07T13:14:45;7.13;;;3.35;;
71800;SDS011;59647;55.838;37.292;2022-08-07T13:17:23;5.22;;;3.08;;
71800;SDS011;59647;55.838;37.292;2022-08-07T13:20:03;5.40;;;3.70;;
71800;SDS011;59647;55.838;37.292;2022-08-07T13:23:09;7.43;;;3.67;;
71800;SDS011;59647;55.838;37.292;2022-08-07T13:25:45;7.20;;;3.20;;
71800;SDS011;59647;55.838;37.292;2022-08-07T13:28:37;53.40;;;7.38;;
71800;SDS011;59647;55.838;37.292;2022-08-07T13:31:21;14.18;;;4.35;;
71800;SDS011;59647;55.838;37.292;2022-08-07T13:33:57;11.68;;;3.08;;
71800;SDS011;59647;55.838;37.292;2022-08-07T13:36:31;5.38;;;2.70;;
71800;SDS011;59647;55.838;37.292;2022-08-07T13:41:43;6.47;;;3.20;;
71800;SDS011;59647;55.838;37.292;2022-08-07T13:44:18;6.35;;;2.90;;
71800;SDS011;59647;55.838;37.292;2022-08-07T13:46:50;5.00;;;2.83;;
71800;SDS011;59647;55.838;37.292;2022-08-07T13:49:21;5.95;;;3.65;;
71800;SDS011;59647;55.838;37.292;2022-08-07T13:51:48;6.07;;;3.72;;
71800;SDS011;59647;55.838;37.292;2022-08-07T13:54:16;16.15;;;3.78;;
71800;SDS011;59647;55.838;37.292;2022-08-07T13:56:45;10.20;;;3.60;;
71800;SDS011;59647;55.838;37.292;2022-08-07T13:59:13;13.05;;;3.95;;
71800;SDS011;59647;55.838;37.292;2022-08-07T14:01:44;5.72;;;3.38;;
71800;SDS011;59647;55.838;37.292;2022-08-07T14:04:16;11.82;;;4.35;;
71800;SDS011;59647;55.838;37.292;2022-08-07T14:06:45;3.80;;;2.60;;
71800;SDS011;59647;55.838;37.292;2022-08-07T14:11:48;5.88;;;2.80;;
71800;SDS011;59647;55.838;37.292;2022-08-07T14:14:18;5.65;;;2.85;;
71800;SDS011;59647;55.838;37.292;2022-08-07T14:16:48;5.40;;;3.42;;
71800;SDS011;59647;55.838;37.292;2022-08-07T14:22:23;4.88;;;3.08;;
71800;SDS011;59647;55.838;37.292;2022-08-07T14:24:59;5.27;;;3.17;;
71800;SDS011;59647;55.838;37.292;2022-08-07T14:27:37;11.60;;;3.75;;
71800;SDS011;59647;55.838;37.292;2022-08-07T14:30:10;7.72;;;3.83;;
71800;SDS011;59647;55.838;37.292;2022-08-07T14:32:41;6.72;;;2.90;;
71800;SDS011;59647;55.838;37.292;2022-08-07T14:35:10;7.63;;;3.70;;
71800;SDS011;59647;55.838;37.292;2022-08-07T14:37:44;5.80;;;3.17;;
71800;SDS011;59647;55.838;37.292;2022-08-07T14:40:14;4.50;;;3.10;;
71800;SDS011;59647;55.838;37.292;2022-08-07T14:42:41;5.28;;;3.15;;
71800;SDS011;59647;55.838;37.292;2022-08-07T14:45:10;7.82;;;3.85;;
71800;SDS011;59647;55.838;37.292;2022-08-07T14:47:38;6.40;;;3.20;;
71800;SDS011;59647;55.838;37.292;2022-08-07T14:50:08;8.88;;;3.38;;
71800;SDS011;59647;55.838;37.292;2022-08-07T14:52:43;6.47;;;3.60;;
71800;SDS011;59647;55.838;37.292;2022-08-07T14:55:13;5.63;;;3.80;;
71800;SDS011;59647;55.838;37.292;2022-08-07T14:57:39;4.65;;;3.15;;
71800;SDS011;59647;55.838;37.292;2022-08-07T15:00:07;5.72;;;3.00;;
71800;SDS011;59647;55.838;37.292;2022-08-07T15:02:34;5.18;;;3.33;;
71800;SDS011;59647;55.838;37.292;2022-08-07T15:05:04;5.50;;;3.13;;
71800;SDS011;59647;55.838;37.292;2022-08-07T15:07:32;6.70;;;3.33;;
71800;SDS011;59647;55.838;37.292;2022-08-07T15:09:58;5.28;;;3.10;;
71800;SDS011;59647;55.838;37.292;2022-08-07T15:12:25;5.90;;;3.45;;
71800;SDS011;59647;55.838;37.292;2022-08-07T15:15:00;4.55;;;2.92;;
71800;SDS011;59647;55.838;37.292;2022-08-07T15:17:30;4.57;;;3.05;;
71800;SDS011;59647;55.838;37.292;2022-08-07T15:20:05;4.18;;;2.85;;
71800;SDS011;59647;55.838;37.292;2022-08-07T15:22:43;5.30;;;3.20;;
71800;SDS011;59647;55.838;37.292;2022-08-07T15:25:13;6.93;;;3.45;;
71800;SDS011;59647;55.838;37.292;2022-08-07T15:27:40;4.57;;;2.85;;
71800;SDS011;59647;55.838;37.292;2022-08-07T15:30:10;5.60;;;3.42;;
71800;SDS011;59647;55.838;37.292;2022-08-07T15:32:40;7.63;;;3.05;;
71800;SDS011;59647;55.838;37.292;2022-08-07T15:35:15;3.67;;;2.65;;
71800;SDS011;59647;55.838;37.292;2022-08-07T15:37:48;7.07;;;3.10;;
71800;SDS011;59647;55.838;37.292;2022-08-07T15:40:16;3.97;;;2.95;;
71800;SDS011;59647;55.838;37.292;2022-08-07T15:45:13;7.13;;;2.95;;
71800;SDS011;59647;55.838;37.292;2022-08-07T15:48:33;4.55;;;2.75;;
71800;SDS011;59647;55.838;37.292;2022-08-07T15:50:54;6.72;;;3.90;;
71800;SDS011;59647;55.838;37.292;2022-08-07T15:55:52;4.18;;;3.25;;
71800;SDS011;59647;55.838;37.292;2022-08-07T15:58:22;5.03;;;3.13;;
71800;SDS011;59647;55.838;37.292;2022-08-07T16:00:58;6.25;;;3.10;;
71800;SDS011;59647;55.838;37.292;2022-08-07T16:03:30;4.80;;;3.22;;
71800;SDS011;59647;55.838;37.292;2022-08-07T16:06:01;4.28;;;2.90;;
71800;SDS011;59647;55.838;37.292;2022-08-07T16:08:28;4.20;;;2.90;;
71800;SDS011;59647;55.838;37.292;2022-08-07T16:11:01;6.18;;;2.92;;
71800;SDS011;59647;55.838;37.292;2022-08-07T16:16:40;3.75;;;2.88;;
71800;SDS011;59647;55.838;37.292;2022-08-07T16:34:24;19.83;;;4.40;;
71800;SDS011;59647;55.838;37.292;2022-08-07T16:48:51;9.75;;;4.22;;
71800;SDS011;59647;55.838;37.292;2022-08-07T16:57:05;9.10;;;3.70;;
71800;SDS011;59647;55.838;37.292;2022-08-07T17:02:38;6.47;;;3.63;;
71800;SDS011;59647;55.838;37.292;2022-08-07T17:07:54;9.95;;;4.07;;
71800;SDS011;59647;55.838;37.292;2022-08-07T17:15:51;9.05;;;5.13;;
71800;SDS011;59647;55.838;37.292;2022-08-07T17:18:37;8.30;;;5.07;;
71800;SDS011;59647;55.838;37.292;2022-08-07T17:21:16;10.93;;;4.90;;
71800;SDS011;59647;55.838;37.292;2022-08-07T17:27:02;7.90;;;4.40;;
71800;SDS011;59647;55.838;37.292;2022-08-07T17:29:41;8.65;;;4.78;;
71800;SDS011;59647;55.838;37.292;2022-08-07T17:33:01;12.80;;;6.13;;
71800;SDS011;59647;55.838;37.292;2022-08-07T17:35:23;10.38;;;5.50;;
71800;SDS011;59647;55.838;37.292;2022-08-07T17:43:27;14.07;;;5.25;;
71800;SDS011;59647;55.838;37.292;2022-08-07T17:46:14;8.23;;;5.57;;
71800;SDS011;59647;55.838;37.292;2022-08-07T17:48:56;10.70;;;5.72;;
71800;SDS011;59647;55.838;37.292;2022-08-07T17:54:34;10.48;;;5.93;;
71800;SDS011;59647;55.838;37.292;2022-08-07T17:59:42;13.65;;;6.22;;
71800;SDS011;59647;55.838;37.292;2022-08-07T18:02:10;12.75;;;5.90;;
71800;SDS011;59647;55.838;37.292;2022-08-07T18:10:15;8.00;;;5.35;;
71800;SDS011;59647;55.838;37.292;2022-08-07T18:15:27;8.65;;;5.28;;
71800;SDS011;59647;55.838;37.292;2022-08-07T18:18:12;9.93;;;5.55;;
71800;SDS011;59647;55.838;37.292;2022-08-07T18:20:51;14.18;;;6.43;;
71800;SDS011;59647;55.838;37.292;2022-08-07T18:26:17;9.30;;;6.25;;
71800;SDS011;59647;55.838;37.292;2022-08-07T18:37:20;13.93;;;7.03;;
71800;SDS011;59647;55.838;37.292;2022-08-07T18:48:25;7.53;;;5.45;;
71800;SDS011;59647;55.838;37.292;2022-08-07T18:51:26;10.68;;;5.20;;
71800;SDS011;59647;55.838;37.292;2022-08-07T19:05:19;9.60;;;5.35;;
71800;SDS011;59647;55.838;37.292;2022-08-07T19:10:22;11.45;;;5.65;;
71800;SDS011;59647;55.838;37.292;2022-08-07T19:13:11;9.80;;;5.50;;
71800;SDS011;59647;55.838;37.292;2022-08-07T19:16:04;12.00;;;4.82;;
71800;SDS011;59647;55.838;37.292;2022-08-07T19:23:49;5.80;;;4.07;;
71800;SDS011;59647;55.838;37.292;2022-08-07T19:26:18;9.00;;;4.40;;
71800;SDS011;59647;55.838;37.292;2022-08-07T19:29:00;7.57;;;4.93;;
71800;SDS011;59647;55.838;37.292;2022-08-07T19:31:31;8.40;;;5.03;;
71800;SDS011;59647;55.838;37.292;2022-08-07T19:34:05;9.07;;;5.87;;
71800;SDS011;59647;55.838;37.292;2022-08-07T19:36:33;8.00;;;5.72;;
71800;SDS011;59647;55.838;37.292;2022-08-07T19:39:04;9.90;;;5.97;;
71800;SDS011;59647;55.838;37.292;2022-08-07T19:41:33;9.18;;;5.60;;
71800;SDS011;59647;55.838;37.292;2022-08-07T19:44:06;7.95;;;5.55;;
71800;SDS011;59647;55.838;37.292;2022-08-07T19:46:37;12.95;;;5.80;;
71800;SDS011;59647;55.838;37.292;2022-08-07T19:49:06;8.73;;;5.43;;
71800;SDS011;59647;55.838;37.292;2022-08-07T19:51:36;7.45;;;5.05;;
71800;SDS011;59647;55.838;37.292;2022-08-07T19:54:04;7.43;;;5.18;;
71800;SDS011;59647;55.838;37.292;2022-08-07T19:56:32;8.77;;;5.00;;
71800;SDS011;59647;55.838;37.292;2022-08-07T19:59:04;8.88;;;5.30;;
71800;SDS011;59647;55.838;37.292;2022-08-07T20:01:49;8.23;;;5.38;;
71800;SDS011;59647;55.838;37.292;2022-08-07T20:04:19;7.07;;;5.15;;